Time;durP1;ratioP1;P1;durP2;ratioP2;P2;SDS_P1;SDS_P2;PMS_P1;PMS_P2;Temp;Humidity;BMP_temperature;BMP_pressure;BME280_temperature;BME280_humidity;BME280_pressure;Samples;Min_cycle;Max_cycle;Signal;HPM_P1;HPM_P2
2020/12/02 00:02:29;;;;;;;18.48;13.83;;;;;;;7.17;63.63;102395.16;1686866;84;21318;-47
2020/12/02 00:05:23;;;;;;;17.77;14.58;;;;;;;7.24;63.54;102405.64;1805139;78;23403;-46
2020/12/02 00:07:52;;;;;;;20.32;12.95;;;;;;;7.22;63.44;102403.45;1788064;80;21159;-46
2020/12/02 00:10:20;;;;;;;20.70;13.40;;;;;;;7.24;63.48;102404.77;1778522;80;21215;-46
2020/12/02 00:12:48;;;;;;;16.35;13.03;;;;;;;7.26;63.56;102409.55;1731688;83;21177;-46
2020/12/02 00:15:17;;;;;;;18.95;14.03;;;;;;;7.28;63.49;102405.27;1740182;81;21177;-46
2020/12/02 00:17:45;;;;;;;18.30;14.10;;;;;;;7.30;63.24;102408.75;1735732;81;21194;-46
2020/12/02 00:20:13;;;;;;;15.15;12.33;;;;;;;7.29;63.15;102419.97;1752900;81;21233;-46
2020/12/02 00:22:42;;;;;;;16.62;13.20;;;;;;;7.27;63.30;102421.66;1750616;81;21203;-46
2020/12/02 00:25:10;;;;;;;17.40;13.43;;;;;;;7.24;63.29;102423.77;1745419;81;21296;-46
2020/12/02 00:27:39;;;;;;;18.98;14.18;;;;;;;7.22;63.16;102431.05;1736727;81;21213;-46
2020/12/02 00:30:09;;;;;;;18.27;13.72;;;;;;;7.17;63.18;102426.22;1715456;82;21307;-46
2020/12/02 00:32:40;;;;;;;18.70;13.62;;;;;;;7.15;63.36;102420.14;1683091;84;21325;-46
2020/12/02 00:35:15;;;;;;;15.63;12.75;;;;;;;7.16;63.51;102424.05;1725120;82;21158;-46
2020/12/02 00:37:49;;;;;;;19.98;14.47;;;;;;;7.24;63.34;102421.17;1811625;79;23594;-47
2020/12/02 00:40:19;;;;;;;18.25;13.40;;;;;;;7.18;63.29;102415.00;1787510;80;21160;-47
2020/12/02 00:42:49;;;;;;;16.25;12.73;;;;;;;7.17;63.36;102409.40;1727372;83;21179;-46
2020/12/02 00:45:17;;;;;;;17.55;13.75;;;;;;;7.17;63.38;102424.93;1729326;81;21122;-47
2020/12/02 00:47:49;;;;;;;18.40;15.18;;;;;;;7.16;63.49;102421.88;1757856;81;21144;-46
2020/12/02 00:50:17;;;;;;;18.05;14.53;;;;;;;7.17;63.49;102418.45;1712377;82;21178;-46
2020/12/02 00:53:09;;;;;;;16.40;12.40;;;;;;;7.17;63.43;102418.45;1754843;81;21150;-47
2020/12/02 00:55:39;;;;;;;18.35;13.83;;;;;;;7.18;63.42;102422.77;1740114;82;21139;-47
2020/12/02 00:58:11;;;;;;;18.05;13.18;;;;;;;7.19;63.32;102418.91;1750204;81;21154;-46
2020/12/02 01:00:40;;;;;;;;;;;;;;;7.18;63.35;102418.89;1742598;82;21182;-47
2020/12/02 01:03:27;;;;;;;21.35;13.78;;;;;;;7.19;63.40;102406.41;1725045;82;20451;-47
2020/12/02 01:05:56;;;;;;;17.85;13.30;;;;;;;7.18;63.30;102395.59;1730685;82;21555;-46
2020/12/02 01:08:31;;;;;;;20.05;14.33;;;;;;;7.16;63.27;102402.05;1739204;82;21180;-46
2020/12/02 01:11:23;;;;;;;21.48;15.63;;;;;;;7.15;63.30;102403.31;1744812;81;21184;-46
2020/12/02 01:14:02;;;;;;;18.30;14.30;;;;;;;7.12;63.44;102401.95;1730735;82;21128;-47
2020/12/02 01:16:42;;;;;;;19.80;14.47;;;;;;;7.11;63.46;102398.94;1752121;81;21164;-47
2020/12/02 01:19:13;;;;;;;20.15;14.75;;;;;;;7.11;63.47;102389.42;1728230;82;21170;-46
2020/12/02 01:22:07;;;;;;;19.65;14.47;;;;;;;7.13;63.51;102397.24;1743753;81;21176;-46
2020/12/02 01:25:02;;;;;;;20.00;13.72;;;;;;;7.13;63.43;102402.42;1731325;82;21585;-46
2020/12/02 01:27:34;;;;;;;18.20;13.60;;;;;;;7.09;63.43;102389.82;1754694;81;21317;-46
2020/12/02 01:30:07;;;;;;;19.65;15.40;;;;;;;7.05;63.50;102397.49;1710421;83;21189;-47
2020/12/02 01:32:36;;;;;;;23.38;15.45;;;;;;;7.04;63.48;102399.65;1735384;82;21154;-46
2020/12/02 01:35:04;;;;;;;19.12;14.43;;;;;;;7.05;63.59;102400.08;1755115;82;21188;-47
2020/12/02 01:37:43;;;;;;;18.57;14.18;;;;;;;7.10;63.71;102403.64;1805556;79;22845;-47
2020/12/02 01:40:21;;;;;;;20.30;15.28;;;;;;;7.07;63.69;102394.51;1781149;80;21177;-46
2020/12/02 01:42:55;;;;;;;17.75;13.78;;;;;;;7.09;63.70;102397.59;1776876;80;21196;-47
2020/12/02 01:45:34;;;;;;;20.55;14.53;;;;;;;7.13;63.53;102392.06;1777222;80;21281;-46
2020/12/02 01:48:36;;;;;;;22.87;15.08;;;;;;;7.11;63.48;102386.84;1688272;83;21310;-46
2020/12/02 01:51:39;;;;;;;24.20;15.72;;;;;;;7.09;63.53;102391.56;1694906;84;21330;-46
2020/12/02 01:54:21;;;;;;;19.98;14.73;;;;;;;7.09;63.52;102391.56;1686458;84;21309;-47
2020/12/02 01:56:58;;;;;;;;;;;;;;;7.02;63.62;102398.75;1691024;84;21140;-46
2020/12/02 01:59:38;;;;;;;23.47;15.38;;;;;;;7.00;63.74;102395.26;1691518;84;20161;-46
2020/12/02 02:02:27;;;;;;;20.90;15.05;;;;;;;7.02;63.84;102396.16;1770166;79;22924;-46
2020/12/02 02:05:11;;;;;;;19.12;14.45;;;;;;;7.00;64.02;102404.31;1645071;86;21167;-46
2020/12/02 02:07:40;;;;;;;19.23;14.33;;;;;;;7.01;64.04;102395.28;1641868;87;21189;-46
2020/12/02 02:10:15;;;;;;;20.72;14.80;;;;;;;7.02;63.91;102400.92;1651790;85;21348;-46
2020/12/02 02:13:07;;;;;;;19.60;14.15;;;;;;;7.03;63.89;102394.00;1642781;86;21198;-47
2020/12/02 02:15:51;;;;;;;23.40;14.53;;;;;;;7.03;63.96;102394.00;1653070;86;21281;-47
2020/12/02 02:18:24;;;;;;;18.73;14.47;;;;;;;7.02;64.03;102391.86;1647692;86;21245;-47
2020/12/02 02:21:15;;;;;;;18.42;14.13;;;;;;;7.06;64.03;102405.73;1772522;79;23410;-47
2020/12/02 02:23:44;;;;;;;20.17;13.78;;;;;;;7.02;64.06;102401.34;1740736;81;21208;-47
2020/12/02 02:26:24;;;;;;;18.55;13.75;;;;;;;7.04;64.03;102400.53;1734104;82;21156;-46
2020/12/02 02:29:09;;;;;;;17.37;12.85;;;;;;;7.05;64.16;102396.20;1738136;82;21601;-47
2020/12/02 02:31:59;;;;;;;21.25;13.60;;;;;;;7.07;64.10;102395.80;1744709;82;21144;-47
2020/12/02 02:34:30;;;;;;;19.20;13.10;;;;;;;7.08;63.93;102406.63;1744874;81;21113;-47
2020/12/02 02:37:00;;;;;;;18.48;12.85;;;;;;;7.08;63.91;102394.98;1738443;82;21322;-46
2020/12/02 02:39:28;;;;;;;18.82;12.82;;;;;;;7.07;63.93;102395.39;1737773;82;21598;-46
2020/12/02 02:41:59;;;;;;;17.70;12.25;;;;;;;7.10;64.08;102391.99;1737179;82;21302;-46
2020/12/02 02:44:27;;;;;;;19.67;13.13;;;;;;;7.13;64.05;102399.83;1694541;84;21172;-46
2020/12/02 02:46:56;;;;;;;17.85;13.55;;;;;;;7.12;63.98;102392.48;1688566;84;21196;-47
2020/12/02 02:49:24;;;;;;;20.10;14.20;;;;;;;7.13;63.91;102402.42;1687742;84;21208;-47
2020/12/02 02:51:52;;;;;;;20.17;13.80;;;;;;;7.13;63.90;102406.30;1686021;84;21333;-46
2020/12/02 02:54:20;;;;;;;20.50;15.32;;;;;;;7.10;64.07;102407.52;1687579;84;21187;-47
2020/12/02 02:56:48;;;;;;;16.70;12.90;;;;;;;7.08;64.09;102405.33;1687565;84;21236;-46
2020/12/02 02:59:16;;;;;;;19.55;13.93;;;;;;;7.09;64.18;102403.21;1688702;84;21260;-46
2020/12/02 03:01:45;;;;;;;19.17;14.13;;;;;;;7.12;64.18;102408.42;1688552;84;21164;-46
2020/12/02 03:04:15;;;;;;;19.52;14.20;;;;;;;7.16;64.22;102404.63;1683322;84;21190;-47
2020/12/02 03:06:43;;;;;;;19.77;14.03;;;;;;;7.16;64.27;102414.98;1685632;84;21322;-46
2020/12/02 03:09:12;;;;;;;20.60;15.00;;;;;;;7.15;64.15;102416.27;1685662;84;21176;-46
2020/12/02 03:11:41;;;;;;;20.95;14.35;;;;;;;7.11;64.17;102415.75;1685271;84;21676;-46
2020/12/02 03:14:10;;;;;;;19.20;15.20;;;;;;;7.07;64.36;102413.51;1683597;84;21188;-46
2020/12/02 03:16:53;;;;;;;23.65;14.47;;;;;;;7.04;64.40;102417.77;1663220;84;21168;-46
2020/12/02 03:19:26;;;;;;;17.37;12.82;;;;;;;7.03;64.64;102419.89;1661457;85;21274;-46
2020/12/02 03:22:06;;;;;;;19.25;12.85;;;;;;;7.10;64.67;102423.05;1772027;79;22997;-46
2020/12/02 03:24:35;;;;;;;19.17;13.78;;;;;;;7.05;64.61;102413.02;1739673;82;21180;-47
2020/12/02 03:27:04;;;;;;;19.85;13.65;;;;;;;7.04;64.58;102416.47;1737344;82;21310;-47
2020/12/02 03:29:32;;;;;;;20.65;13.95;;;;;;;7.03;64.64;102418.59;1741985;82;21157;-46
2020/12/02 03:32:00;;;;;;;19.42;14.53;;;;;;;6.99;64.71;102414.20;1732079;82;21152;-46
2020/12/02 03:34:28;;;;;;;22.73;14.38;;;;;;;6.97;64.85;102415.89;1737662;82;21294;-46
2020/12/02 03:36:56;;;;;;;19.30;13.85;;;;;;;6.97;64.97;102417.19;1740908;82;21326;-47
2020/12/02 03:39:24;;;;;;;17.52;12.75;;;;;;;7.00;65.00;102423.31;1734174;82;21155;-46
2020/12/02 03:41:53;;;;;;;18.32;12.85;;;;;;;7.02;64.92;102422.04;1741510;82;21172;-46
2020/12/02 03:44:21;;;;;;;22.45;14.70;;;;;;;7.02;64.91;102416.45;1737906;82;21297;-46
2020/12/02 03:46:49;;;;;;;19.67;13.20;;;;;;;7.00;64.96;102415.97;1738549;82;21160;-46
2020/12/02 03:49:17;;;;;;;20.97;14.35;;;;;;;6.97;65.13;102418.48;1738374;82;21188;-46
2020/12/02 03:51:46;;;;;;;20.62;14.55;;;;;;;7.01;65.03;102421.58;1740362;82;21172;-46
2020/12/02 03:54:14;;;;;;;21.85;14.83;;;;;;;7.00;65.07;102419.84;1736188;82;21168;-46
2020/12/02 03:56:44;;;;;;;22.05;14.25;;;;;;;6.99;65.08;102424.14;1742800;82;21117;-46
2020/12/02 03:59:12;;;;;;;20.52;15.35;;;;;;;7.00;65.08;102415.97;1732212;82;21164;-47
2020/12/02 04:01:40;;;;;;;24.77;15.90;;;;;;;7.01;65.04;102417.69;1731903;82;21314;-47
2020/12/02 04:04:08;;;;;;;20.97;15.03;;;;;;;6.99;65.00;102423.27;1739331;82;21173;-47
2020/12/02 04:06:36;;;;;;;19.80;14.28;;;;;;;6.97;65.10;102421.06;1739737;82;21152;-46
2020/12/02 04:09:05;;;;;;;20.62;13.83;;;;;;;6.96;65.29;102421.52;1739631;82;21149;-46
2020/12/02 04:11:33;;;;;;;24.18;15.30;;;;;;;6.96;65.32;102427.10;1734777;82;21184;-46
2020/12/02 04:14:01;;;;;;;20.90;14.95;;;;;;;6.94;65.38;102423.61;1742516;81;21146;-46
2020/12/02 04:16:30;;;;;;;22.27;15.72;;;;;;;6.95;65.48;102433.10;1738995;82;21129;-46
2020/12/02 04:18:59;;;;;;;20.70;13.98;;;;;;;6.96;65.41;102435.74;1740468;82;21181;-46
2020/12/02 04:21:27;;;;;;;21.62;15.45;;;;;;;6.94;65.37;102424.49;1741452;82;21157;-46
2020/12/02 04:23:56;;;;;;;22.52;15.32;;;;;;;6.92;65.54;102430.47;1734702;82;21160;-46
2020/12/02 04:26:24;;;;;;;23.30;14.60;;;;;;;6.90;65.62;102435.62;1745416;82;21259;-46
2020/12/02 04:28:52;;;;;;;22.07;14.30;;;;;;;6.90;65.83;102433.04;1729331;82;21597;-46
2020/12/02 04:31:20;;;;;;;25.32;15.68;;;;;;;6.90;65.83;102440.80;1738435;82;21164;-46
2020/12/02 04:33:49;;;;;;;22.98;15.18;;;;;;;6.89;65.69;102443.34;1738864;82;21196;-47
2020/12/02 04:36:17;;;;;;;21.30;14.25;;;;;;;6.89;65.60;102435.57;1739338;82;21176;-47
2020/12/02 04:38:45;;;;;;;21.85;14.33;;;;;;;6.88;65.80;102436.44;1748267;82;21545;-47
2020/12/02 04:41:15;;;;;;;21.97;13.38;;;;;;;6.88;65.90;102439.02;1737132;82;21647;-47
2020/12/02 04:43:49;;;;;;;21.70;14.33;;;;;;;6.87;65.97;102430.79;1739846;82;21160;-47
2020/12/02 04:46:22;;;;;;;19.05;12.30;;;;;;;6.88;65.92;102425.67;1734038;82;21164;-47
2020/12/02 04:48:53;;;;;;;21.45;13.88;;;;;;;6.90;65.92;102426.98;1741878;82;21124;-47
2020/12/02 04:51:25;;;;;;;21.62;15.38;;;;;;;6.89;65.93;102431.69;1715564;82;21149;-47
2020/12/02 04:53:55;;;;;;;20.12;13.88;;;;;;;6.87;66.12;102426.91;1678362;85;21203;-47
2020/12/02 04:56:25;;;;;;;20.55;13.22;;;;;;;6.89;66.14;102423.92;1671462;85;21185;-47
2020/12/02 04:58:54;;;;;;;18.92;12.73;;;;;;;6.90;66.13;102432.16;1675843;85;21221;-45
2020/12/02 05:01:30;;;;;;;16.00;11.75;;;;;;;6.89;66.15;102419.63;1670704;85;21184;-48
2020/12/02 05:04:07;;;;;;;20.25;13.22;;;;;;;6.91;66.21;102419.24;1771487;79;23091;-46
2020/12/02 05:06:48;;;;;;;20.77;13.28;;;;;;;6.85;66.30;102426.00;1737515;82;21168;-47
2020/12/02 05:09:22;;;;;;;17.87;12.82;;;;;;;6.84;66.34;102429.45;1749023;82;21160;-48
2020/12/02 05:12:04;;;;;;;16.30;11.83;;;;;;;6.84;66.34;102426.86;1741296;82;21184;-46
2020/12/02 05:14:38;;;;;;;17.27;13.15;;;;;;;6.84;66.48;102438.51;1735528;82;21736;-47
2020/12/02 05:17:28;;;;;;;19.05;12.45;;;;;;;6.87;66.43;102442.02;1742362;82;21160;-46
2020/12/02 05:20:21;;;;;;;16.95;12.18;;;;;;;6.87;66.30;102432.96;1737232;82;21617;-46
2020/12/02 05:22:51;;;;;;;17.20;12.45;;;;;;;6.87;66.37;102442.43;1733529;82;21291;-46
2020/12/02 05:25:29;;;;;;;16.02;11.78;;;;;;;6.86;66.48;102442.00;1742037;82;21132;-48
2020/12/02 05:28:18;;;;;;;14.87;11.40;;;;;;;6.85;66.27;102448.88;1732195;82;21156;-46
2020/12/02 05:30:47;;;;;;;14.90;11.70;;;;;;;6.83;66.32;102445.80;1742492;81;21156;-47
2020/12/02 05:33:18;;;;;;;14.87;11.63;;;;;;;6.83;66.58;102453.56;1732012;82;21173;-47
2020/12/02 05:35:54;;;;;;;16.10;11.85;;;;;;;6.87;66.38;102445.02;1732237;82;21584;-47
2020/12/02 05:38:36;;;;;;;13.78;10.90;;;;;;;6.87;66.51;102457.95;1732049;82;21201;-47
2020/12/02 05:41:08;;;;;;;12.73;10.38;;;;;;;6.89;66.53;102452.39;1672147;85;21329;-47
2020/12/02 05:43:55;;;;;;;15.20;10.05;;;;;;;6.92;66.40;102448.17;1671640;85;21178;-47
2020/12/02 05:46:33;;;;;;;13.22;10.45;;;;;;;7.00;66.35;102452.20;1805713;79;22583;-46
2020/12/02 05:49:16;;;;;;;16.52;10.65;;;;;;;6.96;66.13;102450.39;1783841;80;21160;-46
2020/12/02 05:51:45;;;;;;;13.15;10.20;;;;;;;6.94;66.11;102447.78;1773825;80;21177;-47
2020/12/02 05:54:16;;;;;;;11.78;9.43;;;;;;;6.95;66.14;102452.52;1774621;80;21176;-47
2020/12/02 05:56:45;;;;;;;12.43;10.43;;;;;;;6.97;66.26;102459.88;1780055;80;21128;-47
2020/12/02 05:59:13;;;;;;;13.55;11.15;;;;;;;6.99;66.20;102458.20;1777616;80;21187;-47
2020/12/02 06:01:41;;;;;;;14.73;10.15;;;;;;;7.00;66.17;102451.78;1776581;80;21116;-47
2020/12/02 06:04:11;;;;;;;12.88;8.88;;;;;;;7.04;65.95;102451.41;1776923;80;21152;-47
2020/12/02 06:06:40;;;;;;;11.53;8.48;;;;;;;7.02;65.88;102456.98;1772612;80;21140;-46
2020/12/02 06:09:10;;;;;;;16.15;8.53;;;;;;;6.99;66.01;102463.38;1776294;80;21148;-46
2020/12/02 06:11:38;;;;;;;11.83;9.45;;;;;;;7.00;66.12;102459.96;1778155;80;21140;-46
2020/12/02 06:14:29;;;;;;;12.20;9.23;;;;;;;7.03;65.98;102469.06;1779669;80;21163;-46
2020/12/02 06:16:58;;;;;;;13.30;9.00;;;;;;;7.02;65.82;102468.62;1782965;80;21136;-46
2020/12/02 06:19:49;;;;;;;12.13;8.60;;;;;;;7.04;65.96;102469.53;1778498;80;21164;-46
2020/12/02 06:22:38;;;;;;;;;;;;;;;7.05;65.97;102467.37;1782853;80;21560;-46
2020/12/02 06:25:06;;;;;;;12.20;8.83;;;;;;;7.08;65.96;102473.92;1769594;80;20143;-48
2020/12/02 06:27:38;;;;;;;10.82;8.65;;;;;;;7.07;65.83;102473.45;1766399;80;21152;-47
2020/12/02 06:30:13;;;;;;;12.80;9.50;;;;;;;7.07;65.80;102470.87;1783623;80;21167;-47
2020/12/02 06:32:59;;;;;;;12.88;9.05;;;;;;;7.07;65.76;102475.62;1778914;80;21557;-47
2020/12/02 06:35:29;;;;;;;12.88;10.10;;;;;;;7.05;65.77;102477.73;1687916;85;21637;-47
2020/12/02 06:38:22;;;;;;;10.65;8.65;;;;;;;7.03;65.72;102480.70;1686726;85;21199;-48
2020/12/02 06:41:00;;;;;;;10.88;8.63;;;;;;;7.01;65.73;102475.92;1692436;85;21621;-46
2020/12/02 06:43:32;;;;;;;11.30;9.00;;;;;;;7.01;65.75;102474.63;1690387;85;21172;-46
2020/12/02 06:46:05;;;;;;;13.22;10.60;;;;;;;7.01;65.74;102481.10;1663257;86;21200;-47
2020/12/02 06:48:38;;;;;;;12.35;8.85;;;;;;;7.01;65.62;102478.52;1680418;85;21169;-46
2020/12/02 06:51:11;;;;;;;12.30;10.05;;;;;;;7.02;65.69;102486.75;1663399;86;21174;-46
2020/12/02 06:53:39;;;;;;;13.40;8.20;;;;;;;7.00;65.61;102488.43;1680445;85;21192;-46
2020/12/02 06:56:09;;;;;;;13.45;10.00;;;;;;;7.02;65.69;102490.63;1668305;86;21373;-46
2020/12/02 06:58:37;;;;;;;13.72;9.50;;;;;;;7.02;65.69;102488.04;1676657;85;21173;-46
2020/12/02 07:01:05;;;;;;;15.00;10.40;;;;;;;7.01;65.51;102496.22;1668037;86;21349;-46
2020/12/02 07:03:43;;;;;;;11.30;8.85;;;;;;;7.01;65.48;102500.51;1679897;85;21304;-47
2020/12/02 07:06:27;;;;;;;10.55;8.70;;;;;;;7.01;65.53;102504.39;1668030;86;21193;-46
2020/12/02 07:09:15;;;;;;;15.40;10.30;;;;;;;7.07;65.40;102498.05;1679861;85;21195;-47
2020/12/02 07:12:04;;;;;;;15.20;10.93;;;;;;;7.05;65.22;102502.32;1674182;82;21206;-47
2020/12/02 07:14:38;;;;;;;11.25;9.30;;;;;;;7.03;65.10;102498.83;1733622;82;21297;-47
2020/12/02 07:17:09;;;;;;;13.40;10.93;;;;;;;7.02;65.14;102504.86;1739912;82;21595;-47
2020/12/02 07:19:40;;;;;;;15.83;10.90;;;;;;;6.97;65.06;102506.47;1747240;81;21626;-47
2020/12/02 07:22:19;;;;;;;14.05;10.80;;;;;;;6.92;65.24;102497.75;1744359;81;21169;-47
2020/12/02 07:24:50;;;;;;;13.48;10.03;;;;;;;6.88;65.27;102510.17;1695920;83;21247;-47
2020/12/02 07:27:25;;;;;;;14.70;10.25;;;;;;;6.91;65.33;102510.23;1806944;79;22680;-47
2020/12/02 07:30:02;;;;;;;13.75;11.10;;;;;;;6.83;65.40;102518.25;1789371;80;21140;-47
2020/12/02 07:32:29;;;;;;;13.13;11.22;;;;;;;6.83;65.44;102519.55;1768830;78;21159;-48
2020/12/02 07:35:05;;;;;;;16.73;11.70;;;;;;;6.83;65.59;102518.25;1769763;80;21160;-47
2020/12/02 07:37:33;;;;;;;14.15;11.57;;;;;;;6.85;65.43;102516.56;1774541;80;21100;-47
2020/12/02 07:40:04;;;;;;;12.53;10.60;;;;;;;6.83;65.44;102521.72;1772573;80;21302;-46
2020/12/02 07:42:40;;;;;;;15.88;11.88;;;;;;;6.82;65.49;102519.11;1783795;80;21175;-47
2020/12/02 07:45:19;;;;;;;19.60;11.78;;;;;;;6.81;65.52;102513.46;1772861;80;21093;-47
2020/12/02 07:48:00;;;;;;;13.80;11.20;;;;;;;6.82;65.52;102519.11;1774426;80;21108;-47
2020/12/02 07:50:45;;;;;;;14.80;10.82;;;;;;;6.82;65.64;102517.36;1765758;81;21159;-47
2020/12/02 07:53:43;;;;;;;15.05;11.08;;;;;;;6.88;65.71;102517.53;1770847;79;22904;-47
2020/12/02 07:56:19;;;;;;;15.03;11.30;;;;;;;6.87;65.63;102521.35;1740503;82;21144;-46
2020/12/02 07:58:47;;;;;;;13.98;11.38;;;;;;;6.88;65.50;102521.82;1660155;85;21194;-46
2020/12/02 08:01:36;;;;;;;16.52;11.28;;;;;;;6.86;65.52;102513.16;1632768;86;21158;-46
2020/12/02 08:04:25;;;;;;;15.75;11.70;;;;;;;6.85;65.61;102524.33;1651163;86;21611;-46
2020/12/02 08:07:04;;;;;;;13.80;10.65;;;;;;;6.85;65.57;102516.56;1649717;86;21223;-48
2020/12/02 08:09:39;;;;;;;14.53;11.55;;;;;;;6.86;65.55;102520.92;1650796;86;21234;-46
2020/12/02 08:12:14;;;;;;;17.85;11.33;;;;;;;6.88;65.44;102519.23;1645929;86;21309;-46
2020/12/02 08:14:51;;;;;;;18.73;12.13;;;;;;;6.91;65.52;102508.93;1805485;78;22897;-47
2020/12/02 08:17:23;;;;;;;13.93;10.70;;;;;;;6.87;65.54;102517.47;1778788;80;21144;-46
2020/12/02 08:19:58;;;;;;;;;;;;;;;6.92;65.60;102515.45;1728753;83;21135;-46
2020/12/02 08:22:46;;;;;;;14.47;10.82;;;;;;;6.63;66.40;102519.53;1725954;83;20165;-47
2020/12/02 08:25:25;;;;;;;15.30;11.18;;;;;;;6.87;66.10;102514.88;1705418;83;21180;-46
2020/12/02 08:27:57;;;;;;;13.55;10.10;;;;;;;6.96;65.89;102513.80;1725461;83;21156;-46
2020/12/02 08:30:28;;;;;;;14.00;12.20;;;;;;;6.99;65.81;102507.38;1724134;83;21136;-46
2020/12/02 08:33:11;;;;;;;;;;;;;;;7.02;65.94;102511.33;1734437;82;21170;-47
2020/12/02 08:35:49;;;;;;;14.95;11.73;;;;;;;7.03;66.03;102501.41;1732305;82;20162;-47
2020/12/02 08:38:25;;;;;;;13.40;11.68;;;;;;;7.07;65.87;102505.81;1739778;81;21151;-46
2020/12/02 08:40:55;;;;;;;14.05;11.22;;;;;;;7.08;65.83;102504.98;1723564;83;21202;-44
2020/12/02 08:43:43;;;;;;;15.60;11.60;;;;;;;7.09;65.91;102511.92;1719933;83;21261;-47
2020/12/02 08:46:22;;;;;;;13.53;11.68;;;;;;;7.11;65.95;102512.83;1711760;83;21145;-47
2020/12/02 08:48:55;;;;;;;;;;;;;;;7.15;66.05;102499.10;1710159;83;21211;-46
2020/12/02 08:51:29;;;;;;;16.50;12.20;;;;;;;7.23;66.11;102500.13;1809051;79;22896;-47
2020/12/02 08:53:57;;;;;;;15.65;12.30;;;;;;;7.21;66.17;102505.69;1788355;80;21612;-47
2020/12/02 08:56:36;;;;;;;15.00;11.38;;;;;;;7.23;66.30;102510.48;1767540;80;21164;-47
2020/12/02 08:59:07;;;;;;;13.53;10.68;;;;;;;7.27;66.28;102499.34;1782034;80;21162;-47
2020/12/02 09:01:35;;;;;;;15.25;11.30;;;;;;;7.31;66.38;102505.02;1748027;81;21198;-48
2020/12/02 09:04:04;;;;;;;13.65;10.80;;;;;;;7.35;66.30;102502.95;1711696;83;21133;-47
2020/12/02 09:06:32;;;;;;;13.78;10.58;;;;;;;7.36;66.24;102496.91;1724687;82;21145;-46
2020/12/02 09:09:00;;;;;;;15.95;10.90;;;;;;;7.38;66.25;102498.69;1721669;81;21174;-43
2020/12/02 09:11:33;;;;;;;15.78;11.20;;;;;;;7.40;66.25;102501.30;1741593;81;21152;-46
2020/12/02 09:14:02;;;;;;;14.80;11.03;;;;;;;7.39;66.35;102494.39;1650755;87;21162;-46
2020/12/02 09:16:34;;;;;;;14.18;9.95;;;;;;;7.40;66.21;102492.23;1651399;87;21223;-47
2020/12/02 09:19:06;;;;;;;12.58;10.30;;;;;;;7.40;66.15;102494.41;1650691;87;21231;-47
2020/12/02 09:21:41;;;;;;;15.30;10.93;;;;;;;7.44;66.20;102486.27;1804708;79;22905;-47
2020/12/02 09:24:09;;;;;;;17.85;11.97;;;;;;;7.40;66.24;102485.75;1776803;80;21262;-47
2020/12/02 09:26:38;;;;;;;17.52;13.40;;;;;;;7.42;66.10;102483.22;1783961;80;21537;-43
2020/12/02 09:29:08;;;;;;;13.08;10.58;;;;;;;7.44;65.95;102482.38;1779496;80;21140;-47
2020/12/02 09:31:36;;;;;;;15.13;11.65;;;;;;;7.44;65.71;102479.78;1778454;80;21534;-47
2020/12/02 09:34:06;;;;;;;13.90;10.30;;;;;;;7.43;65.52;102475.47;1788380;80;21690;-44
2020/12/02 09:36:35;;;;;;;12.10;10.53;;;;;;;7.42;65.55;102473.70;1784830;80;21584;-46
2020/12/02 09:39:04;;;;;;;15.45;11.28;;;;;;;7.44;65.61;102474.61;1793009;80;21167;-47
2020/12/02 09:41:37;;;;;;;13.05;10.25;;;;;;;7.44;65.42;102472.02;1791100;80;21156;-46
2020/12/02 09:44:37;;;;;;;13.95;10.30;;;;;;;7.43;65.42;102470.29;1781110;80;21180;-46
2020/12/02 09:47:14;;;;;;;16.48;10.90;;;;;;;7.45;65.35;102471.19;1771720;80;21153;-47
2020/12/02 09:49:44;;;;;;;13.28;11.00;;;;;;;7.48;65.27;102464.75;1788553;80;21136;-47
2020/12/02 09:52:26;;;;;;;12.82;10.38;;;;;;;7.50;65.08;102468.24;1784196;80;21171;-47
2020/12/02 09:54:54;;;;;;;15.28;11.63;;;;;;;7.50;65.02;102463.06;1752890;80;21301;-46
2020/12/02 09:57:28;;;;;;;17.07;12.00;;;;;;;7.52;64.81;102457.94;1790930;80;21266;-47
2020/12/02 09:59:58;;;;;;;19.27;13.20;;;;;;;7.52;64.84;102457.52;1754834;81;21180;-47
2020/12/02 10:02:37;;;;;;;18.20;13.70;;;;;;;7.50;64.86;102467.39;1758201;81;21291;-47
2020/12/02 10:05:31;;;;;;;15.43;10.82;;;;;;;7.49;64.73;102465.22;1717456;83;21186;-47
2020/12/02 10:08:45;;;;;;;17.30;11.83;;;;;;;7.48;64.60;102458.27;1706648;83;21155;-47
2020/12/02 10:11:33;;;;;;;14.90;11.73;;;;;;;7.48;64.71;102463.45;1734991;81;21141;-46
2020/12/02 10:14:22;;;;;;;14.93;11.75;;;;;;;7.48;64.77;102462.16;1737538;81;21160;-48
2020/12/02 10:17:26;;;;;;;12.70;10.32;;;;;;;7.41;64.80;102465.50;1755528;81;21326;-47
2020/12/02 10:20:18;;;;;;;17.27;11.15;;;;;;;7.27;65.36;102461.80;1723586;83;21197;-47
2020/12/02 10:23:27;;;;;;;15.90;11.95;;;;;;;7.41;65.06;102470.69;1770888;81;21143;-47
2020/12/02 10:26:13;;;;;;;18.32;12.30;;;;;;;7.49;64.72;102465.22;1775576;81;21144;-46
2020/12/02 10:28:48;;;;;;;14.85;11.95;;;;;;;7.48;64.91;102471.22;1775219;81;21616;-47
2020/12/02 10:31:48;;;;;;;16.65;12.33;;;;;;;7.51;65.02;102460.05;1762663;81;21173;-46
2020/12/02 10:34:27;;;;;;;19.17;14.38;;;;;;;7.51;64.93;102457.05;1751590;81;21128;-47
2020/12/02 10:37:12;;;;;;;15.95;12.33;;;;;;;7.52;64.83;102457.52;1771342;80;21153;-47
2020/12/02 10:39:40;;;;;;;15.08;13.25;;;;;;;7.51;64.99;102450.99;1720177;82;21142;-45
2020/12/02 10:42:26;;;;;;;28.98;19.52;;;;;;;7.49;65.07;102454.86;1776624;81;21172;-46
2020/12/02 10:45:10;;;;;;;22.40;15.43;;;;;;;7.46;65.15;102454.79;1749610;81;21177;-45
2020/12/02 10:47:58;;;;;;;20.82;14.23;;;;;;;7.48;65.18;102455.69;1736141;82;21593;-47
2020/12/02 10:50:34;;;;;;;15.83;12.45;;;;;;;7.50;65.33;102457.88;1767110;79;23379;-46
2020/12/02 10:53:09;;;;;;;17.70;12.03;;;;;;;7.45;65.37;102459.95;1744535;82;21113;-47
2020/12/02 10:55:39;;;;;;;20.65;16.27;;;;;;;7.44;65.55;102464.25;1736314;82;21168;-46
2020/12/02 10:58:21;;;;;;;25.05;15.53;;;;;;;7.45;65.44;102462.53;1738651;82;21147;-47
2020/12/02 11:00:52;;;;;;;;;;;;;;;7.44;65.61;102459.52;1730362;82;21176;-46
2020/12/02 11:03:25;;;;;;;17.10;13.10;;;;;;;7.45;65.64;102467.30;1639557;85;20253;-47
2020/12/02 11:06:13;;;;;;;18.20;12.70;;;;;;;7.45;65.62;102464.72;1634392;87;21178;-46
2020/12/02 11:09:04;;;;;;;16.55;13.32;;;;;;;7.45;65.75;102465.13;1612146;89;21209;-46
2020/12/02 11:12:14;;;;;;;18.23;12.90;;;;;;;7.43;65.83;102465.11;1645565;87;21186;-47
2020/12/02 11:15:09;;;;;;;20.02;15.08;;;;;;;7.44;65.89;102466.84;1604941;89;21168;-46
2020/12/02 11:18:18;;;;;;;19.60;14.43;;;;;;;7.49;65.96;102467.81;1771421;79;23536;-47
2020/12/02 11:21:24;;;;;;;16.55;12.18;;;;;;;7.43;65.88;102461.22;1725715;82;21192;-47
2020/12/02 11:24:24;;;;;;;16.17;12.43;;;;;;;7.43;65.97;102462.52;1732894;82;21593;-47
2020/12/02 11:26:53;;;;;;;15.83;13.08;;;;;;;7.44;66.02;102464.25;1732718;82;21294;-47
2020/12/02 11:29:21;;;;;;;18.52;13.13;;;;;;;7.41;66.08;102457.73;1733189;82;21113;-47
2020/12/02 11:32:14;;;;;;;16.50;11.90;;;;;;;7.41;66.17;102456.44;1724389;82;21156;-47
2020/12/02 11:35:15;;;;;;;15.83;13.10;;;;;;;7.41;66.37;102446.08;1731145;82;21153;-47
2020/12/02 11:38:03;;;;;;;21.82;13.60;;;;;;;7.44;66.42;102442.23;1810073;79;22821;-47
2020/12/02 11:40:45;;;;;;;15.72;13.25;;;;;;;7.40;66.46;102440.44;1783829;80;21152;-44
2020/12/02 11:43:24;;;;;;;17.95;13.70;;;;;;;7.40;66.35;102444.31;1738972;82;21141;-47
2020/12/02 11:45:53;;;;;;;16.62;13.20;;;;;;;7.42;66.44;102442.63;1738617;82;21326;-47
2020/12/02 11:48:38;;;;;;;20.32;17.57;;;;;;;7.41;66.29;102433.13;1716284;82;21219;-47
2020/12/02 11:51:32;;;;;;;17.85;13.18;;;;;;;7.40;66.26;102427.48;1736235;82;21144;-47
2020/12/02 11:54:10;;;;;;;14.53;11.15;;;;;;;7.46;66.44;102430.18;1769995;79;22923;-46
2020/12/02 11:56:44;;;;;;;14.47;11.48;;;;;;;7.43;66.41;102431.44;1741011;82;21630;-47
2020/12/02 11:59:20;;;;;;;15.28;12.18;;;;;;;7.45;66.42;102438.81;1740231;82;21152;-47
2020/12/02 12:01:57;;;;;;;17.70;13.55;;;;;;;7.47;66.39;102434.53;1744741;81;21153;-47